Terminal Aerodrome Forecast
Issued by NWS

Home | Current Version | Previous Version | Text Only | Print | Product List | Glossary On
Versions: 1 2 3 4 5 6 7 8 9 10 11 12 13 14 15 16
000
FTUS45 KRIW 062340 AAC
TAFWRL
TAF AMD
KWRL 062340Z 0700/0724 34022G32KT P6SM BKN110
     FM070200 34015G25KT 6SM -RA SCT020 BKN035
     FM070700 34013KT 5SM -RA SCT015 BKN025
     FM071900 01010KT P6SM VCSH BKN050=

USA.gov is the U.S. government's official web portal to all federal, state and local government web resources and services.